RJOZ(METAR)
10/21 04:00
METAR RJOZ 201900Z 32004KT 290V360 9999 FEW030 BKN240 12/10 Q1021
RMK 1CU030 A3017=
戻る
トップページへ戻る
IMOC Co,.Ltd.